createdAt,value
2022-11-05T00:00:14.164Z,18974.56
2022-11-05T00:02:59.903Z,18968.47
2022-11-05T00:05:46.289Z,18992.84
2022-11-05T00:08:32.538Z,18996.91
2022-11-05T00:11:02.154Z,18984.72
2022-11-05T00:13:47.613Z,18974.56
2022-11-05T00:16:35.363Z,19000.97
2022-11-05T00:19:10.088Z,18984.72
2022-11-05T00:21:57.478Z,18984.72
2022-11-05T00:24:43.535Z,18970.50
2022-11-05T00:27:12.904Z,18984.72
2022-11-05T00:29:40.917Z,19025.38
2022-11-05T00:32:09.112Z,19015.19
2022-11-05T00:34:37.109Z,19015.19
2022-11-05T00:37:05.264Z,19005.03
2022-11-05T00:39:33.303Z,19000.97
2022-11-05T00:42:18.740Z,18986.75
2022-11-05T00:45:03.306Z,18996.91
2022-11-05T00:48:02.270Z,19037.56
2022-11-05T00:50:31.508Z,19017.25
2022-11-05T00:53:02.050Z,18994.88
2022-11-05T00:55:35.181Z,19009.09
2022-11-05T00:58:05.913Z,19029.44
2022-11-05T01:00:37.860Z,19021.31
2022-11-05T01:03:09.645Z,19021.31
2022-11-05T01:05:44.189Z,19003.00
2022-11-05T01:08:12.456Z,18982.69
2022-11-05T01:10:44.927Z,18992.84
2022-11-05T01:13:17.649Z,19005.03
2022-11-05T01:15:48.609Z,18988.78
2022-11-05T01:18:16.622Z,19003.00
2022-11-05T01:20:45.010Z,19005.03
2022-11-05T01:23:13.910Z,18974.56
2022-11-05T01:25:42.698Z,18994.88
2022-11-05T01:28:11.533Z,18966.44
2022-11-05T01:30:39.875Z,18982.69
2022-11-05T01:33:09.614Z,18978.63
2022-11-05T01:35:37.841Z,18994.88
2022-11-05T01:38:05.827Z,18984.72
2022-11-05T01:40:33.841Z,18980.66
2022-11-05T01:43:01.860Z,18927.84
2022-11-05T01:45:30.307Z,18929.88
2022-11-05T01:48:14.909Z,18935.97
2022-11-05T01:50:50.855Z,18925.81
2022-11-05T01:53:30.396Z,18907.50
2022-11-05T01:56:04.308Z,18929.88
2022-11-05T01:58:42.392Z,18954.25
2022-11-05T02:01:10.601Z,18909.53
2022-11-05T02:03:40.957Z,18901.41
2022-11-05T02:06:09.771Z,18921.75
2022-11-05T02:08:56.949Z,18903.44
2022-11-05T02:11:25.870Z,18895.31
2022-11-05T02:13:53.948Z,18893.28
2022-11-05T02:16:38.648Z,18907.50
2022-11-05T02:19:52.380Z,18940.03
2022-11-05T02:23:06.891Z,18887.19
2022-11-05T02:26:31.532Z,18911.56
2022-11-05T02:30:04.073Z,18919.69
2022-11-05T02:33:10.728Z,18917.66
2022-11-05T02:36:02.108Z,18915.63
2022-11-05T02:38:44.015Z,18911.56
2022-11-05T02:41:25.008Z,18895.31
2022-11-05T02:44:13.283Z,18911.56
2022-11-05T02:46:49.422Z,18913.59
2022-11-05T02:49:34.517Z,18917.66
2022-11-05T02:52:10.268Z,18879.06
2022-11-05T02:54:45.244Z,18868.91
2022-11-05T02:57:13.390Z,18899.38
2022-11-05T02:59:41.361Z,18897.34
2022-11-05T03:02:09.693Z,18879.06
2022-11-05T03:04:39.470Z,18911.56
2022-11-05T03:07:45.629Z,18866.88
2022-11-05T03:10:37.555Z,18864.84
2022-11-05T03:13:15.972Z,18842.50
2022-11-05T03:15:59.356Z,18846.56
2022-11-05T03:18:39.494Z,18866.88
2022-11-05T03:21:16.827Z,18883.13
2022-11-05T03:23:53.574Z,18862.81
2022-11-05T03:26:30.258Z,18858.75
2022-11-05T03:29:07.071Z,18891.25
2022-11-05T03:31:38.085Z,18836.41
2022-11-05T03:34:09.044Z,18828.28
2022-11-05T03:36:42.793Z,18822.19
2022-11-05T03:39:18.684Z,18834.38
2022-11-05T03:41:53.032Z,18818.09
2022-11-05T03:44:28.812Z,18824.22
2022-11-05T03:47:05.440Z,18854.69
2022-11-05T03:49:40.691Z,18832.34
2022-11-05T03:52:17.370Z,18809.97
2022-11-05T03:54:46.478Z,18830.31
2022-11-05T03:57:21.512Z,18828.28
2022-11-05T03:59:52.069Z,18824.22
2022-11-05T04:02:25.578Z,18834.38
2022-11-05T04:04:55.098Z,18828.28
2022-11-05T04:07:41.989Z,18858.75
2022-11-05T04:10:28.445Z,18836.41
2022-11-05T04:13:14.059Z,18838.44
2022-11-05T04:15:56.098Z,18858.75
2022-11-05T04:18:24.193Z,18852.66
2022-11-05T04:21:09.600Z,18854.69
2022-11-05T04:23:56.523Z,18838.44
2022-11-05T04:26:24.537Z,18834.38
2022-11-05T04:29:10.267Z,18836.41
2022-11-05T04:31:38.334Z,18803.88
2022-11-05T04:34:06.961Z,18812.00
2022-11-05T04:36:34.952Z,18805.91
2022-11-05T04:39:04.362Z,18830.31
2022-11-05T04:41:32.362Z,18769.34
2022-11-05T04:44:00.344Z,18775.44
2022-11-05T04:46:28.315Z,18749.03
2022-11-05T04:48:56.346Z,18761.22
2022-11-05T04:51:24.352Z,18783.56
2022-11-05T04:53:52.375Z,18759.19
2022-11-05T04:56:25.223Z,18775.44
2022-11-05T04:58:53.440Z,18738.88
2022-11-05T05:01:25.217Z,18753.09
2022-11-05T05:03:55.606Z,18736.84
2022-11-05T05:06:24.147Z,18728.72
2022-11-05T05:08:53.005Z,18744.97
2022-11-05T05:11:23.783Z,18753.09
2022-11-05T05:13:51.929Z,18728.72
2022-11-05T05:16:23.218Z,18714.50
2022-11-05T05:18:52.022Z,18728.72
2022-11-05T05:21:40.466Z,18736.84
2022-11-05T05:24:11.693Z,18738.88
2022-11-05T05:26:45.049Z,18736.84
2022-11-05T05:29:14.504Z,18724.66
2022-11-05T05:31:43.032Z,18694.16
2022-11-05T05:34:13.975Z,18684.00
2022-11-05T05:36:42.327Z,18720.59
2022-11-05T05:39:11.730Z,18720.59
2022-11-05T05:41:41.117Z,18706.38
2022-11-05T05:44:09.121Z,18686.03
2022-11-05T05:46:37.163Z,18696.19
2022-11-05T05:49:11.073Z,18700.25
2022-11-05T05:51:40.292Z,18696.19
2022-11-05T05:54:08.345Z,18681.97
2022-11-05T05:56:36.361Z,18692.13
2022-11-05T05:59:07.229Z,18667.75
2022-11-05T06:01:35.545Z,18696.19
2022-11-05T06:04:03.860Z,18675.88
2022-11-05T06:06:32.218Z,18651.50
2022-11-05T06:09:00.351Z,18690.09
2022-11-05T06:11:28.395Z,18663.69
2022-11-05T06:13:56.427Z,18653.53
2022-11-05T06:16:25.798Z,18663.69
2022-11-05T06:18:53.775Z,18655.56
2022-11-05T06:21:21.778Z,18639.31
2022-11-05T06:23:49.847Z,18645.41
2022-11-05T06:26:20.060Z,18655.56
2022-11-05T06:28:48.094Z,18600.72
2022-11-05T06:31:17.611Z,18598.69
2022-11-05T06:33:47.206Z,18602.75
2022-11-05T06:36:17.344Z,18598.69
2022-11-05T06:38:45.450Z,18588.53
2022-11-05T06:41:13.616Z,18606.81
2022-11-05T06:43:42.210Z,18598.69
2022-11-05T06:46:11.686Z,18590.56
2022-11-05T06:48:40.492Z,18592.59
2022-11-05T06:51:10.749Z,18600.72
2022-11-05T06:53:38.760Z,18608.84
2022-11-05T06:56:08.766Z,18582.44
2022-11-05T06:58:37.359Z,18570.22
2022-11-05T07:01:09.023Z,18598.69
2022-11-05T07:03:38.926Z,18619.00
2022-11-05T07:06:09.263Z,18614.94
2022-11-05T07:08:38.987Z,18598.69
2022-11-05T07:11:07.489Z,18647.44
2022-11-05T07:13:35.576Z,18627.13
2022-11-05T07:16:03.628Z,18631.19
2022-11-05T07:18:31.636Z,18623.06
2022-11-05T07:21:00.992Z,18612.91
2022-11-05T07:23:30.490Z,18619.00
2022-11-05T07:26:00.293Z,18627.13
2022-11-05T07:28:28.308Z,18633.22
2022-11-05T07:30:56.280Z,18643.38
2022-11-05T07:33:24.260Z,18651.50
2022-11-05T07:35:52.281Z,18675.88
2022-11-05T07:38:20.360Z,18679.94
2022-11-05T07:40:49.743Z,18673.84
2022-11-05T07:43:17.803Z,18704.31
2022-11-05T07:45:47.180Z,18736.84
2022-11-05T07:48:15.145Z,18765.28
2022-11-05T07:50:43.197Z,18712.47
2022-11-05T07:53:13.801Z,18744.97
2022-11-05T07:55:43.362Z,18812.00
2022-11-05T07:58:13.944Z,18838.44
2022-11-05T08:00:42.315Z,18793.72
2022-11-05T08:03:14.803Z,18854.69
2022-11-05T08:05:46.902Z,18856.72
2022-11-05T08:08:17.719Z,18875.00
2022-11-05T08:10:46.550Z,18903.44
2022-11-05T08:13:16.667Z,18889.22
2022-11-05T08:15:45.603Z,18948.16
2022-11-05T08:18:16.460Z,18952.22
2022-11-05T08:20:46.742Z,18923.78
2022-11-05T08:23:15.415Z,19015.19
2022-11-05T08:25:43.526Z,19000.97
2022-11-05T08:28:15.092Z,18956.28
2022-11-05T08:30:43.513Z,19000.97
2022-11-05T08:33:14.219Z,19031.47
2022-11-05T08:35:42.496Z,19027.41
2022-11-05T08:38:15.043Z,19084.28
2022-11-05T08:40:45.627Z,19057.88
2022-11-05T08:43:15.853Z,19090.38
2022-11-05T08:45:44.020Z,19124.94
2022-11-05T08:48:15.387Z,19114.78
2022-11-05T08:50:44.536Z,19133.06
2022-11-05T08:53:13.848Z,19141.19
2022-11-05T08:55:42.324Z,19161.50
2022-11-05T08:58:15.015Z,19145.25
2022-11-05T09:00:46.939Z,19135.09
2022-11-05T09:03:15.417Z,19149.31
2022-11-05T09:05:44.180Z,19110.72
2022-11-05T09:08:15.239Z,19110.72
2022-11-05T09:10:44.799Z,19110.72
2022-11-05T09:13:18.934Z,19147.28
2022-11-05T09:15:50.032Z,19175.72
2022-11-05T09:18:20.349Z,19185.88
2022-11-05T09:20:48.551Z,19228.56
2022-11-05T09:23:16.940Z,19265.13
2022-11-05T09:25:45.836Z,19293.59
2022-11-05T09:28:17.358Z,19358.63
2022-11-05T09:30:49.652Z,19297.66
2022-11-05T09:33:19.529Z,19328.13
2022-11-05T09:35:48.533Z,19346.44
2022-11-05T09:38:16.697Z,19354.56
2022-11-05T09:40:58.561Z,19374.88
2022-11-05T09:43:34.171Z,19370.81
2022-11-05T09:46:13.386Z,19368.78
2022-11-05T09:48:46.392Z,19356.59
2022-11-05T09:51:23.445Z,19362.69
2022-11-05T09:53:53.442Z,19385.03
2022-11-05T09:56:25.123Z,19376.91
2022-11-05T09:59:01.758Z,19372.84
2022-11-05T10:01:37.121Z,19378.94
2022-11-05T10:04:14.311Z,19413.47
2022-11-05T10:06:50.792Z,19403.31
2022-11-05T10:09:26.240Z,19431.78
2022-11-05T10:11:59.283Z,19470.38
2022-11-05T10:14:33.127Z,19464.28
2022-11-05T10:17:12.703Z,19500.88
2022-11-05T10:19:47.305Z,19468.34
2022-11-05T10:22:19.288Z,19480.53
2022-11-05T10:24:49.912Z,19478.50
2022-11-05T10:27:24.952Z,19502.91
2022-11-05T10:29:53.318Z,19509.00
2022-11-05T10:32:31.410Z,19561.84
2022-11-05T10:35:02.696Z,19529.31
2022-11-05T10:37:35.835Z,19541.50
2022-11-05T10:40:20.731Z,19486.66
2022-11-05T10:43:04.422Z,19480.53
2022-11-05T10:45:47.239Z,19525.25
2022-11-05T10:48:43.439Z,19598.41
2022-11-05T10:51:13.674Z,19614.66
2022-11-05T10:54:00.521Z,19653.28
2022-11-05T10:56:36.534Z,19667.50
2022-11-05T10:59:12.012Z,19693.94
2022-11-05T11:01:41.372Z,19732.53
2022-11-05T11:04:21.341Z,19726.44
2022-11-05T11:06:52.266Z,19744.75
2022-11-05T11:09:25.965Z,19720.34
2022-11-05T11:12:06.231Z,19734.56
2022-11-05T11:14:35.158Z,19704.09
2022-11-05T11:17:28.725Z,19665.47
2022-11-05T11:20:23.538Z,19667.50
2022-11-05T11:23:03.553Z,19626.88
2022-11-05T11:25:41.434Z,19572.00
2022-11-05T11:28:23.767Z,19586.22
2022-11-05T11:30:58.062Z,19582.16
2022-11-05T11:33:29.473Z,19643.13
2022-11-05T11:35:59.477Z,19667.50
2022-11-05T11:38:32.492Z,19706.13
2022-11-05T11:41:27.867Z,19710.19
2022-11-05T11:44:03.289Z,19748.81
2022-11-05T11:46:35.418Z,19795.53
2022-11-05T11:49:04.727Z,19838.22
2022-11-05T11:51:40.496Z,19813.84
2022-11-05T11:54:24.854Z,19848.38
2022-11-05T11:56:56.689Z,19882.94
2022-11-05T11:59:53.839Z,19998.78
2022-11-05T12:02:45.800Z,20155.28
2022-11-05T12:05:37.382Z,20139.03
2022-11-05T12:08:27.696Z,20049.59
2022-11-05T12:11:06.205Z,19992.69
2022-11-05T12:14:04.201Z,19988.63
2022-11-05T12:17:07.288Z,19972.38
2022-11-05T12:20:21.600Z,19933.75
2022-11-05T12:23:25.385Z,19925.63
2022-11-05T12:26:04.764Z,19956.09
2022-11-05T12:29:18.444Z,19980.50
2022-11-05T12:32:04.053Z,20000.81
2022-11-05T12:34:55.639Z,20004.88
2022-11-05T12:37:36.737Z,19980.50
2022-11-05T12:40:39.692Z,20002.84
2022-11-05T12:43:20.841Z,19992.69
2022-11-05T12:45:58.547Z,20025.22
2022-11-05T12:48:46.166Z,20025.22
2022-11-05T12:51:33.867Z,20074.00
2022-11-05T12:54:20.967Z,20051.63
2022-11-05T12:56:56.626Z,20047.56
2022-11-05T12:59:32.411Z,20082.13
2022-11-05T13:02:17.743Z,20017.09
2022-11-05T13:04:54.035Z,20053.66
2022-11-05T13:07:30.869Z,20029.28
2022-11-05T13:10:06.285Z,19960.16
2022-11-05T13:12:42.548Z,19952.03
2022-11-05T13:15:27.577Z,19884.97
2022-11-05T13:18:02.624Z,19789.44
2022-11-05T13:20:34.701Z,19754.91
2022-11-05T13:23:15.552Z,19787.41
2022-11-05T13:25:52.638Z,19805.72
2022-11-05T13:28:36.396Z,19807.75
2022-11-05T13:31:13.469Z,19854.50
2022-11-05T13:33:47.347Z,19811.81
2022-11-05T13:36:40.608Z,19803.69
2022-11-05T13:39:20.939Z,19838.22
2022-11-05T13:42:10.630Z,19821.97
2022-11-05T13:45:18.307Z,19840.25
2022-11-05T13:48:21.987Z,19785.38
2022-11-05T13:51:24.145Z,19740.69
2022-11-05T13:54:33.522Z,19787.41
2022-11-05T13:57:41.600Z,19738.66
2022-11-05T14:00:21.926Z,19740.69
2022-11-05T14:02:56.300Z,19746.78
2022-11-05T14:05:31.645Z,19767.09
2022-11-05T14:08:03.260Z,19714.25
2022-11-05T14:10:39.974Z,19763.03
2022-11-05T14:13:21.678Z,19716.28
2022-11-05T14:16:06.452Z,19736.59
2022-11-05T14:18:45.482Z,19726.44
2022-11-05T14:21:47.249Z,19691.91
2022-11-05T14:24:44.096Z,19720.34
2022-11-05T14:27:43.539Z,19687.84
2022-11-05T14:30:41.935Z,19716.28
2022-11-05T14:33:32.962Z,19612.63
2022-11-05T14:36:35.721Z,19586.22
2022-11-05T14:39:20.779Z,19618.75
2022-11-05T14:42:12.632Z,19602.47
2022-11-05T14:44:59.793Z,19610.59
2022-11-05T14:47:32.751Z,19569.97
2022-11-05T14:50:11.453Z,19586.22
2022-11-05T14:52:41.951Z,19541.50
2022-11-05T14:55:30.469Z,19539.47
2022-11-05T14:58:29.101Z,19561.84
2022-11-05T15:00:58.763Z,19517.13
2022-11-05T15:04:00.868Z,19492.75
2022-11-05T15:06:34.628Z,19474.44
2022-11-05T15:09:30.648Z,19511.03
2022-11-05T15:12:20.390Z,19492.75
2022-11-05T15:14:58.106Z,19431.78
2022-11-05T15:17:31.294Z,19435.84
2022-11-05T15:20:10.385Z,19415.50
2022-11-05T15:22:44.754Z,19476.47
2022-11-05T15:25:24.262Z,19411.44
2022-11-05T15:28:11.144Z,19391.13
2022-11-05T15:30:39.302Z,19391.13
2022-11-05T15:33:19.623Z,19322.03
2022-11-05T15:35:47.612Z,19332.19
2022-11-05T15:38:33.991Z,19338.28
2022-11-05T15:41:05.843Z,19275.31
2022-11-05T15:43:34.413Z,19283.44
2022-11-05T15:46:07.132Z,19295.63
2022-11-05T15:48:36.977Z,19269.22
2022-11-05T15:51:05.378Z,19283.44
2022-11-05T15:54:16.099Z,19246.84
2022-11-05T15:56:52.670Z,19222.47
2022-11-05T15:59:23.243Z,19222.47
2022-11-05T16:01:56.305Z,19171.66
2022-11-05T16:04:28.789Z,19181.81
2022-11-05T16:07:02.143Z,19189.97
2022-11-05T16:09:35.178Z,19187.91
2022-11-05T16:12:30.870Z,19165.56
2022-11-05T16:15:04.358Z,19167.59
2022-11-05T16:17:47.281Z,19147.28
2022-11-05T16:20:27.260Z,19106.66
2022-11-05T16:22:58.477Z,19126.97
2022-11-05T16:25:40.547Z,19143.22
2022-11-05T16:28:23.328Z,19141.19
2022-11-05T16:30:57.604Z,19139.16
2022-11-05T16:33:28.572Z,19116.81
2022-11-05T16:35:56.631Z,19078.19
2022-11-05T16:38:25.655Z,19074.13
2022-11-05T16:40:55.022Z,19088.34
2022-11-05T16:43:25.941Z,19039.59
2022-11-05T16:45:56.405Z,19057.88
2022-11-05T16:48:25.102Z,19051.78
2022-11-05T16:50:53.223Z,19025.38
2022-11-05T16:53:21.333Z,19023.34
2022-11-05T16:55:49.702Z,19007.06
2022-11-05T16:58:23.553Z,19023.34
2022-11-05T17:00:56.643Z,19005.03
2022-11-05T17:03:24.698Z,19011.13
2022-11-05T17:05:52.698Z,18998.94
2022-11-05T17:08:20.682Z,19000.97
2022-11-05T17:10:48.794Z,19013.16
2022-11-05T17:13:19.972Z,18984.72
2022-11-05T17:15:50.649Z,18974.56
2022-11-05T17:18:19.752Z,18998.94
2022-11-05T17:20:50.515Z,19009.09
2022-11-05T17:23:21.431Z,18952.22
2022-11-05T17:25:52.778Z,18988.78
2022-11-05T17:28:23.138Z,18964.41
2022-11-05T17:30:53.190Z,18964.41
2022-11-05T17:33:23.448Z,18996.91
2022-11-05T17:35:52.578Z,19000.97
2022-11-05T17:38:21.621Z,18976.59
2022-11-05T17:40:50.060Z,18982.69
2022-11-05T17:43:18.312Z,18944.09
2022-11-05T17:45:51.801Z,18952.22
2022-11-05T17:48:21.255Z,18905.47
2022-11-05T17:50:51.554Z,18933.94
2022-11-05T17:53:20.793Z,18956.28
2022-11-05T17:55:49.573Z,18956.28
2022-11-05T17:58:17.582Z,18938.00
2022-11-05T18:00:48.498Z,18938.00
2022-11-05T18:03:16.860Z,18931.91
2022-11-05T18:05:45.000Z,18917.66
2022-11-05T18:08:13.215Z,18954.25
2022-11-05T18:10:42.469Z,18907.50
2022-11-05T18:13:12.197Z,18919.69
2022-11-05T18:15:41.279Z,18911.56
2022-11-05T18:18:10.946Z,18915.63
2022-11-05T18:20:39.149Z,18879.06
2022-11-05T18:23:07.154Z,18903.44
2022-11-05T18:25:35.133Z,18870.94
2022-11-05T18:28:03.617Z,18905.47
2022-11-05T18:30:31.672Z,18870.94
2022-11-05T18:32:59.750Z,18872.97
2022-11-05T18:35:29.172Z,18891.25
2022-11-05T18:37:57.203Z,18881.09
2022-11-05T18:40:25.199Z,18887.19
2022-11-05T18:42:53.199Z,18901.41
2022-11-05T18:45:25.534Z,18889.22
2022-11-05T18:47:56.608Z,18870.94
2022-11-05T18:50:24.621Z,18854.69
2022-11-05T18:52:54.032Z,18887.19
2022-11-05T18:55:22.543Z,18848.59
2022-11-05T18:57:50.579Z,18834.38
2022-11-05T19:00:19.005Z,18838.44
2022-11-05T19:02:47.174Z,18854.69
2022-11-05T19:05:28.521Z,18879.06
2022-11-05T19:07:58.769Z,18866.88
2022-11-05T19:10:28.303Z,18881.09
2022-11-05T19:12:56.492Z,18881.09
2022-11-05T19:15:24.543Z,18830.31
2022-11-05T19:17:52.553Z,18885.16
2022-11-05T19:20:20.759Z,18842.50
2022-11-05T19:22:48.834Z,18889.22
2022-11-05T19:25:18.341Z,18862.81
2022-11-05T19:27:46.358Z,18856.72
2022-11-05T19:30:14.563Z,18858.75
2022-11-05T19:32:42.622Z,18840.47
2022-11-05T19:35:10.850Z,18820.16
2022-11-05T19:37:38.862Z,18840.47
2022-11-05T19:40:09.097Z,18836.41
2022-11-05T19:42:38.539Z,18840.47
2022-11-05T19:45:30.381Z,18850.63
2022-11-05T19:47:56.157Z,18850.63
2022-11-05T19:50:24.190Z,18889.22
2022-11-05T19:52:52.219Z,18852.66
2022-11-05T19:55:20.363Z,18818.09
2022-11-05T19:57:49.826Z,18875.00
2022-11-05T20:00:18.711Z,18840.47
2022-11-05T20:02:47.855Z,18840.47
2022-11-05T20:05:18.042Z,18899.38
2022-11-05T20:07:52.335Z,18875.00
2022-11-05T20:10:21.093Z,18877.03
2022-11-05T20:12:53.284Z,18858.75
2022-11-05T20:15:21.592Z,18858.75
2022-11-05T20:17:51.237Z,18836.41
2022-11-05T20:20:20.525Z,18842.50
2022-11-05T20:22:48.623Z,18826.25
2022-11-05T20:25:16.771Z,18864.84
2022-11-05T20:27:44.791Z,18862.81
2022-11-05T20:30:14.441Z,18852.66
2022-11-05T20:32:42.495Z,18830.31
2022-11-05T20:35:11.186Z,18875.00
2022-11-05T20:37:39.200Z,18866.88
2022-11-05T20:40:08.811Z,18870.94
2022-11-05T20:42:37.833Z,18842.50
2022-11-05T20:45:11.655Z,18862.81
2022-11-05T20:47:43.631Z,18807.94
2022-11-05T20:50:11.627Z,18809.97
2022-11-05T20:52:40.369Z,18807.94
2022-11-05T20:55:09.997Z,18807.94
2022-11-05T20:57:38.803Z,18812.00
2022-11-05T21:00:09.275Z,18816.06
2022-11-05T21:02:41.857Z,18797.78
2022-11-05T21:05:10.531Z,18771.38
2022-11-05T21:07:38.557Z,18789.66
2022-11-05T21:10:07.652Z,18769.34
2022-11-05T21:12:35.652Z,18809.97
2022-11-05T21:15:03.703Z,18787.63
2022-11-05T21:17:31.735Z,18818.09
2022-11-05T21:20:01.101Z,18781.53
2022-11-05T21:22:29.099Z,18773.41
2022-11-05T21:24:58.062Z,18765.28
2022-11-05T21:27:26.153Z,18814.03
2022-11-05T21:29:54.143Z,18816.06
2022-11-05T21:32:22.155Z,18826.25
2022-11-05T21:34:50.100Z,18822.19
2022-11-05T21:37:20.300Z,18842.50
2022-11-05T21:39:48.333Z,18799.81
2022-11-05T21:42:16.363Z,18834.38
2022-11-05T21:44:44.408Z,18824.22
2022-11-05T21:47:12.840Z,18860.78
2022-11-05T21:49:40.955Z,18793.72
2022-11-05T21:52:29.525Z,18797.78
2022-11-05T21:55:16.605Z,18795.75
2022-11-05T21:58:02.236Z,18801.84
2022-11-05T22:00:30.867Z,18799.81
2022-11-05T22:03:00.009Z,18801.84
2022-11-05T22:05:28.754Z,18761.22
2022-11-05T22:07:56.801Z,18826.25
2022-11-05T22:10:26.292Z,18795.75
2022-11-05T22:12:54.445Z,18789.66
2022-11-05T22:15:22.385Z,18807.94
2022-11-05T22:17:51.487Z,18814.03
2022-11-05T22:20:19.973Z,18803.88
2022-11-05T22:22:48.017Z,18779.50
2022-11-05T22:25:16.749Z,18761.22
2022-11-05T22:27:46.158Z,18793.72
2022-11-05T22:30:15.439Z,18799.81
2022-11-05T22:32:43.534Z,18805.91
2022-11-05T22:35:12.017Z,18809.97
2022-11-05T22:37:40.193Z,18783.56
2022-11-05T22:40:09.613Z,18769.34
2022-11-05T22:42:37.829Z,18781.53
2022-11-05T22:45:08.906Z,18773.41
2022-11-05T22:47:37.304Z,18771.38
2022-11-05T22:50:07.155Z,18785.59
2022-11-05T22:52:35.146Z,18797.78
2022-11-05T22:55:05.197Z,18773.41
2022-11-05T22:57:33.503Z,18818.09
2022-11-05T23:00:01.661Z,18781.53
2022-11-05T23:02:31.363Z,18783.56
2022-11-05T23:04:59.544Z,18814.03
2022-11-05T23:07:45.036Z,18755.13
2022-11-05T23:10:30.490Z,18818.09
2022-11-05T23:12:58.468Z,18773.41
2022-11-05T23:15:49.252Z,18751.06
2022-11-05T23:18:36.056Z,18740.91
2022-11-05T23:21:23.173Z,18797.78
2022-11-05T23:24:06.736Z,18777.47
2022-11-05T23:26:52.726Z,18769.34
2022-11-05T23:29:23.612Z,18785.59
2022-11-05T23:32:09.760Z,18767.31
2022-11-05T23:34:39.894Z,18769.34
2022-11-05T23:37:26.186Z,18789.66
2022-11-05T23:39:54.303Z,18785.59
2022-11-05T23:42:40.479Z,18730.75
2022-11-05T23:45:27.483Z,18820.16
2022-11-05T23:48:13.584Z,18844.53
2022-11-05T23:50:44.532Z,18836.41
2022-11-05T23:53:12.872Z,18858.75
2022-11-05T23:55:40.993Z,18854.69
2022-11-05T23:58:09.960Z,18832.34
